Time;durP1;ratioP1;P1;durP2;ratioP2;P2;SDS_P1;SDS_P2;PMS_P1;PMS_P2;Temp;Humidity;BMP_temperature;BMP_pressure;BME280_temperature;BME280_humidity;BME280_pressure;Samples;Min_cycle;Max_cycle;Signal;HPM_P1;HPM_P2
2023/09/24 00:01:13;;;;;;;5.20;1.50;;;;;;;;;;103808;1289;545887;-75
2023/09/24 00:04:49;;;;;;;4.10;1.30;;;;;;;;;;103727;1290;544867;-75
2023/09/24 00:08:26;;;;;;;5.10;1.40;;;;;;;;;;103795;1291;545620;-75
2023/09/24 00:11:59;;;;;;;5.10;1.70;;;;;;;;;;103934;1288;544969;-74
2023/09/24 00:15:42;;;;;;;3.80;1.20;;;;;;;;;;103679;1292;545691;-73
2023/09/24 00:19:19;;;;;;;4.50;1.30;;;;;;;;;;104079;1289;544910;-74
2023/09/24 00:22:58;;;;;;;5.50;1.60;;;;;;;;;;103701;1291;545310;-74
2023/09/24 00:26:34;;;;;;;5.20;1.70;;;;;;;;;;103984;1301;544795;-74
2023/09/24 00:30:13;;;;;;;6.60;1.80;;;;;;;;;;103700;1291;545066;-74
2023/09/24 00:33:51;;;;;;;4.70;1.60;;;;;;;;;;103528;1298;545484;-74
2023/09/24 00:37:27;;;;;;;4.30;1.50;;;;;;;;;;103548;1295;545537;-74
2023/09/24 00:41:00;;;;;;;5.20;1.60;;;;;;;;;;104117;1288;544993;-74
2023/09/24 00:44:43;;;;;;;5.10;1.70;;;;;;;;;;103454;1297;544768;-75
2023/09/24 00:48:16;;;;;;;6.30;1.70;;;;;;;;;;104058;1289;544790;-74
2023/09/24 00:51:59;;;;;;;4.90;1.50;;;;;;;;;;104029;1291;545423;-74
2023/09/24 00:55:36;;;;;;;4.20;1.30;;;;;;;;;;103758;1289;544789;-74
2023/09/24 00:59:15;;;;;;;5.90;1.50;;;;;;;;;;103889;1289;545104;-74
2023/09/24 01:02:51;;;;;;;3.60;1.20;;;;;;;;;;103778;1295;545595;-74
2023/09/24 01:06:30;;;;;;;3.90;1.60;;;;;;;;;;103760;1291;544834;-75
2023/09/24 01:10:11;;;;;;;4.10;1.60;;;;;;;;;;104212;1289;544770;-74
2023/09/24 01:13:44;;;;;;;5.90;1.40;;;;;;;;;;103933;1293;545463;-74
2023/09/24 01:17:20;;;;;;;3.70;1.30;;;;;;;;;;103895;1289;545150;-75
2023/09/24 01:20:58;;;;;;;4.10;1.50;;;;;;;;;;103602;1291;545804;-74
2023/09/24 01:24:36;;;;;;;4.40;1.30;;;;;;;;;;103802;1289;544960;-74
2023/09/24 01:28:14;;;;;;;3.90;1.30;;;;;;;;;;103973;1289;544750;-74
2023/09/24 01:31:51;;;;;;;4.60;1.90;;;;;;;;;;104007;1292;544771;-74
2023/09/24 01:35:28;;;;;;;4.30;1.60;;;;;;;;;;103743;1288;544760;-74
2023/09/24 01:39:06;;;;;;;5.20;1.40;;;;;;;;;;103732;1292;544952;-74
2023/09/24 01:42:43;;;;;;;3.90;1.40;;;;;;;;;;103757;1291;544927;-74
2023/09/24 01:46:21;;;;;;;4.50;1.40;;;;;;;;;;103755;1289;545972;-73
2023/09/24 01:49:58;;;;;;;6.50;1.70;;;;;;;;;;103543;1298;544988;-74
2023/09/24 01:53:38;;;;;;;4.50;1.40;;;;;;;;;;104039;1289;544981;-74
2023/09/24 01:57:13;;;;;;;4.10;1.20;;;;;;;;;;104122;1292;544758;-73
2023/09/24 02:00:50;;;;;;;6.10;1.40;;;;;;;;;;103816;1289;544704;-74
2023/09/24 02:04:28;;;;;;;4.90;1.50;;;;;;;;;;103745;1292;545279;-74
2023/09/24 02:08:07;;;;;;;5.20;1.50;;;;;;;;;;103807;1289;544969;-74
2023/09/24 02:11:42;;;;;;;3.10;1.20;;;;;;;;;;103901;1290;544783;-73
2023/09/24 02:15:23;;;;;;;5.10;1.60;;;;;;;;;;103998;1292;544812;-74
2023/09/24 02:18:58;;;;;;;5.40;1.50;;;;;;;;;;103983;1288;545621;-74
2023/09/24 02:22:36;;;;;;;4.90;1.40;;;;;;;;;;103769;1291;544731;-74
2023/09/24 02:26:13;;;;;;;4.70;1.40;;;;;;;;;;103755;1292;545666;-74
2023/09/24 02:29:52;;;;;;;5.30;1.50;;;;;;;;;;104037;1290;545249;-74
2023/09/24 02:33:28;;;;;;;4.80;1.60;;;;;;;;;;104077;1286;545033;-73
2023/09/24 02:37:05;;;;;;;4.80;1.50;;;;;;;;;;103752;1289;544996;-74
2023/09/24 02:40:43;;;;;;;4.50;1.30;;;;;;;;;;103864;1291;544868;-74
2023/09/24 02:44:19;;;;;;;4.00;1.40;;;;;;;;;;103793;1291;544813;-74
2023/09/24 02:47:57;;;;;;;5.70;1.50;;;;;;;;;;103993;1289;545529;-74
2023/09/24 02:51:35;;;;;;;3.30;1.20;;;;;;;;;;103752;1289;545925;-74
2023/09/24 02:55:16;;;;;;;4.60;1.50;;;;;;;;;;103768;1294;544740;-74
2023/09/24 02:58:50;;;;;;;4.10;1.40;;;;;;;;;;103749;1292;545105;-74
2023/09/24 03:02:29;;;;;;;6.60;1.60;;;;;;;;;;103804;1290;545006;-74
2023/09/24 03:06:05;;;;;;;4.70;1.40;;;;;;;;;;103752;1292;545199;-74
2023/09/24 03:09:42;;;;;;;5.50;1.50;;;;;;;;;;103835;1291;545056;-74
2023/09/24 03:13:20;;;;;;;5.80;1.50;;;;;;;;;;103827;1289;545857;-74
2023/09/24 03:16:57;;;;;;;4.60;1.50;;;;;;;;;;103822;1289;544810;-74
2023/09/24 03:20:35;;;;;;;5.30;1.40;;;;;;;;;;103721;1291;545009;-74
2023/09/24 03:24:14;;;;;;;4.00;1.40;;;;;;;;;;103641;1290;545665;-74
2023/09/24 03:27:54;;;;;;;4.90;1.40;;;;;;;;;;103815;1289;545424;-74
2023/09/24 03:31:27;;;;;;;5.10;1.30;;;;;;;;;;103776;1289;544814;-74
2023/09/24 03:35:06;;;;;;;4.80;1.60;;;;;;;;;;103801;1288;545154;-74
2023/09/24 03:38:42;;;;;;;7.10;1.60;;;;;;;;;;103712;1289;544719;-74
2023/09/24 03:42:19;;;;;;;5.40;1.40;;;;;;;;;;103796;1290;545173;-74
2023/09/24 03:45:57;;;;;;;6.60;1.90;;;;;;;;;;103735;1295;544856;-74
2023/09/24 03:49:34;;;;;;;5.70;1.60;;;;;;;;;;103847;1290;545531;-74
2023/09/24 03:53:12;;;;;;;4.40;1.50;;;;;;;;;;103898;1292;544991;-74
2023/09/24 03:56:49;;;;;;;6.60;1.80;;;;;;;;;;103859;1289;545427;-73
2023/09/24 04:00:27;;;;;;;4.20;1.40;;;;;;;;;;104044;1291;544785;-74
2023/09/24 04:04:05;;;;;;;5.10;1.70;;;;;;;;;;104666;1283;545516;-74
2023/09/24 04:07:42;;;;;;;5.70;1.40;;;;;;;;;;104034;1296;544989;-75
2023/09/24 04:11:20;;;;;;;4.90;1.60;;;;;;;;;;104124;1292;544797;-75
2023/09/24 04:14:57;;;;;;;4.80;1.50;;;;;;;;;;103744;1291;545016;-75
2023/09/24 04:18:35;;;;;;;4.30;1.30;;;;;;;;;;104014;1289;545601;-75
2023/09/24 04:22:12;;;;;;;4.80;1.60;;;;;;;;;;104834;1282;545348;-75
2023/09/24 04:25:51;;;;;;;3.90;1.50;;;;;;;;;;103829;1289;545926;-75
2023/09/24 04:29:27;;;;;;;6.90;1.60;;;;;;;;;;103752;1292;545525;-74
2023/09/24 04:33:09;;;;;;;4.90;1.60;;;;;;;;;;103827;1289;544859;-75
2023/09/24 04:36:42;;;;;;;6.20;1.90;;;;;;;;;;103725;1290;544908;-74
2023/09/24 04:40:19;;;;;;;5.50;1.70;;;;;;;;;;103775;1293;544785;-75
2023/09/24 04:43:57;;;;;;;5.40;1.50;;;;;;;;;;103762;1292;544942;-74
2023/09/24 04:47:34;;;;;;;6.20;1.80;;;;;;;;;;103999;1290;544754;-74
2023/09/24 04:51:11;;;;;;;6.40;1.70;;;;;;;;;;103709;1292;544992;-74
2023/09/24 04:54:49;;;;;;;5.50;1.30;;;;;;;;;;103750;1291;544771;-74
2023/09/24 04:58:26;;;;;;;5.30;1.80;;;;;;;;;;103873;1292;545010;-75
2023/09/24 05:02:04;;;;;;;4.80;1.60;;;;;;;;;;104561;1282;545770;-74
2023/09/24 05:05:42;;;;;;;4.90;1.70;;;;;;;;;;103755;1291;544822;-74
2023/09/24 05:09:19;;;;;;;4.70;1.50;;;;;;;;;;103736;1302;545914;-74
2023/09/24 05:12:56;;;;;;;5.70;1.50;;;;;;;;;;103755;1296;545165;-75
2023/09/24 05:16:33;;;;;;;4.60;1.50;;;;;;;;;;103888;1288;544949;-75
2023/09/24 05:20:11;;;;;;;6.80;1.80;;;;;;;;;;104162;1292;544893;-74
2023/09/24 05:23:48;;;;;;;6.10;1.70;;;;;;;;;;104030;1290;544968;-75
2023/09/24 05:27:29;;;;;;;6.40;1.60;;;;;;;;;;103746;1290;545063;-75
2023/09/24 05:31:03;;;;;;;5.10;1.40;;;;;;;;;;103795;1292;545678;-74
2023/09/24 05:34:41;;;;;;;5.30;1.70;;;;;;;;;;104000;1291;545480;-72
2023/09/24 05:38:19;;;;;;;4.50;1.40;;;;;;;;;;103729;1291;545617;-72
2023/09/24 05:41:56;;;;;;;4.50;1.50;;;;;;;;;;103711;1288;544732;-74
2023/09/24 05:45:33;;;;;;;3.20;1.30;;;;;;;;;;103797;1289;544729;-74
2023/09/24 05:49:11;;;;;;;4.90;1.60;;;;;;;;;;103641;1291;544971;-74
2023/09/24 05:52:48;;;;;;;4.70;1.60;;;;;;;;;;103801;1289;544840;-74
2023/09/24 05:56:26;;;;;;;5.00;1.70;;;;;;;;;;103515;1297;546011;-74
2023/09/24 06:00:04;;;;;;;3.60;1.50;;;;;;;;;;103778;1294;544749;-74
2023/09/24 06:03:41;;;;;;;5.10;1.60;;;;;;;;;;103820;1290;544841;-74
2023/09/24 06:07:18;;;;;;;4.80;1.50;;;;;;;;;;104189;1289;546423;-74
2023/09/24 06:10:55;;;;;;;4.00;1.70;;;;;;;;;;104059;1289;545065;-74
2023/09/24 06:14:33;;;;;;;6.10;1.80;;;;;;;;;;103780;1290;544774;-75
2023/09/24 06:18:11;;;;;;;5.90;1.60;;;;;;;;;;103649;1292;545687;-74
2023/09/24 06:21:49;;;;;;;4.50;1.80;;;;;;;;;;103759;1291;545004;-74
2023/09/24 06:25:25;;;;;;;6.20;1.60;;;;;;;;;;103738;1289;545000;-74
2023/09/24 06:29:03;;;;;;;3.50;1.50;;;;;;;;;;103748;1294;545471;-74
2023/09/24 06:32:40;;;;;;;4.60;1.50;;;;;;;;;;103639;1294;545855;-74
2023/09/24 06:36:18;;;;;;;6.00;1.60;;;;;;;;;;103585;1291;545186;-74
2023/09/24 06:39:56;;;;;;;4.80;1.70;;;;;;;;;;103771;1290;545073;-74
2023/09/24 06:43:33;;;;;;;6.30;2.10;;;;;;;;;;103846;1292;545062;-74
2023/09/24 06:47:10;;;;;;;5.10;2.00;;;;;;;;;;103690;1290;545397;-74
2023/09/24 06:50:49;;;;;;;5.30;1.80;;;;;;;;;;103811;1289;545053;-74
2023/09/24 06:54:25;;;;;;;5.60;1.70;;;;;;;;;;103492;1308;545090;-74
2023/09/24 06:58:03;;;;;;;4.70;1.90;;;;;;;;;;104621;1282;544954;-74
2023/09/24 07:01:40;;;;;;;5.80;2.00;;;;;;;;;;103811;1288;544790;-74
2023/09/24 07:05:17;;;;;;;6.10;2.20;;;;;;;;;;104387;1285;545524;-74
2023/09/24 07:08:56;;;;;;;6.70;1.90;;;;;;;;;;103712;1291;545473;-72
2023/09/24 07:12:33;;;;;;;6.30;2.00;;;;;;;;;;104204;1291;544894;-74
2023/09/24 07:16:11;;;;;;;5.00;1.90;;;;;;;;;;103947;1289;544785;-74
2023/09/24 07:19:48;;;;;;;4.90;1.80;;;;;;;;;;103741;1289;545980;-74
2023/09/24 07:33:50;;;;;;;4.50;1.70;;;;;;;;;;104800;1283;549765;-73
2023/09/24 07:36:41;;;;;;;6.70;2.00;;;;;;;;;;103756;1303;545162;-74
2023/09/24 07:40:20;;;;;;;7.00;1.80;;;;;;;;;;104517;1282;544844;-74
2023/09/24 07:43:56;;;;;;;5.90;1.90;;;;;;;;;;103743;1291;545494;-75
2023/09/24 07:47:34;;;;;;;5.70;2.20;;;;;;;;;;103695;1289;544861;-74
2023/09/24 08:01:34;;;;;;;5.60;2.30;;;;;;;;;;104490;1285;550880;-76
2023/09/24 08:04:26;;;;;;;8.80;2.60;;;;;;;;;;103992;1289;545783;-74
2023/09/24 08:08:04;;;;;;;5.80;2.30;;;;;;;;;;103691;1291;544984;-74
2023/09/24 08:11:41;;;;;;;5.90;2.30;;;;;;;;;;103706;1289;545476;-75
2023/09/24 08:15:20;;;;;;;6.30;2.40;;;;;;;;;;103815;1289;545566;-74
2023/09/24 08:18:56;;;;;;;6.40;2.30;;;;;;;;;;103705;1292;544794;-74
2023/09/24 08:22:53;;;;;;;7.50;2.50;;;;;;;;;;103591;1290;548494;-75
2023/09/24 08:26:11;;;;;;;5.00;2.10;;;;;;;;;;103723;1292;545018;-74
2023/09/24 08:29:52;;;;;;;6.10;2.30;;;;;;;;;;103732;1293;545018;-74
2023/09/24 08:33:26;;;;;;;7.90;2.50;;;;;;;;;;103983;1289;544800;-73
2023/09/24 08:37:03;;;;;;;7.30;2.40;;;;;;;;;;103734;1289;544823;-74
2023/09/24 08:40:39;;;;;;;7.40;2.50;;;;;;;;;;103773;1291;545610;-74
2023/09/24 08:44:24;;;;;;;8.40;2.70;;;;;;;;;;103863;1288;544935;-74
2023/09/24 08:48:00;;;;;;;5.40;2.30;;;;;;;;;;103729;1291;545007;-74
2023/09/24 08:51:37;;;;;;;7.30;2.90;;;;;;;;;;103751;1292;545099;-74
2023/09/24 08:55:15;;;;;;;5.20;2.30;;;;;;;;;;104075;1292;545326;-74
2023/09/24 08:58:53;;;;;;;5.90;2.70;;;;;;;;;;103739;1295;545008;-74
2023/09/24 09:02:30;;;;;;;6.50;2.60;;;;;;;;;;103814;1289;544972;-75
2023/09/24 09:06:03;;;;;;;5.70;2.50;;;;;;;;;;104155;1289;545249;-74
2023/09/24 09:09:56;;;;;;;7.30;2.80;;;;;;;;;;103688;1290;545285;-73
2023/09/24 09:13:23;;;;;;;6.80;2.80;;;;;;;;;;103747;1289;544854;-74
2023/09/24 09:17:02;;;;;;;6.60;2.60;;;;;;;;;;103776;1291;545967;-74
2023/09/24 09:20:43;;;;;;;8.80;2.80;;;;;;;;;;103713;1293;545457;-74
2023/09/24 09:24:25;;;;;;;6.80;2.80;;;;;;;;;;103749;1289;544800;-75
2023/09/24 09:27:53;;;;;;;6.40;2.50;;;;;;;;;;103976;1292;545412;-72
2023/09/24 09:31:31;;;;;;;7.80;3.10;;;;;;;;;;103787;1290;545505;-74
2023/09/24 09:35:09;;;;;;;7.40;3.00;;;;;;;;;;104082;1288;544739;-74
2023/09/24 09:38:46;;;;;;;9.80;2.70;;;;;;;;;;103759;1289;545059;-74
2023/09/24 09:42:24;;;;;;;7.20;3.20;;;;;;;;;;103732;1289;544937;-73
2023/09/24 09:46:03;;;;;;;7.50;3.10;;;;;;;;;;103756;1290;544981;-73
2023/09/24 09:49:41;;;;;;;8.50;3.60;;;;;;;;;;103709;1291;546212;-74
2023/09/24 09:53:16;;;;;;;7.80;2.80;;;;;;;;;;104106;1289;544760;-74
2023/09/24 09:56:55;;;;;;;8.30;3.50;;;;;;;;;;103746;1289;544979;-74
2023/09/24 10:00:30;;;;;;;6.80;3.50;;;;;;;;;;103922;1289;544986;-74
2023/09/24 10:04:08;;;;;;;6.60;3.20;;;;;;;;;;103640;1291;545325;-74
2023/09/24 10:07:46;;;;;;;6.60;2.60;;;;;;;;;;104318;1286;545252;-74
2023/09/24 10:11:29;;;;;;;7.20;2.70;;;;;;;;;;103911;1288;544748;-74
2023/09/24 10:15:21;;;;;;;5.40;2.40;;;;;;;;;;103733;1295;545357;-74
2023/09/24 10:18:53;;;;;;;5.50;2.60;;;;;;;;;;103686;1292;544859;-73
2023/09/24 10:22:32;;;;;;;6.10;2.80;;;;;;;;;;103765;1291;545023;-74
2023/09/24 10:25:53;;;;;;;6.90;3.00;;;;;;;;;;103748;1292;544954;-74
2023/09/24 10:29:45;;;;;;;6.70;3.20;;;;;;;;;;104112;1286;545436;-73
2023/09/24 10:33:08;;;;;;;9.80;3.40;;;;;;;;;;103772;1289;545334;-75
2023/09/24 10:36:44;;;;;;;7.60;3.30;;;;;;;;;;103743;1292;545359;-74
2023/09/24 10:40:26;;;;;;;6.50;3.10;;;;;;;;;;103654;1288;545059;-74
2023/09/24 10:44:19;;;;;;;6.10;2.70;;;;;;;;;;103826;1289;544771;-74
2023/09/24 10:47:38;;;;;;;6.00;3.10;;;;;;;;;;103742;1292;545874;-75
2023/09/24 10:51:16;;;;;;;6.90;2.90;;;;;;;;;;103726;1291;545259;-75
2023/09/24 10:54:52;;;;;;;6.20;3.00;;;;;;;;;;103734;1289;545649;-74
2023/09/24 10:58:30;;;;;;;6.70;2.90;;;;;;;;;;103727;1291;545492;-74
2023/09/24 11:02:14;;;;;;;8.10;3.10;;;;;;;;;;103746;1289;545538;-73
2023/09/24 11:05:45;;;;;;;7.10;2.70;;;;;;;;;;104072;1286;544941;-74
2023/09/24 11:09:22;;;;;;;6.70;2.70;;;;;;;;;;103959;1286;544965;-73
2023/09/24 11:13:00;;;;;;;6.00;2.30;;;;;;;;;;103699;1292;545656;-74
2023/09/24 11:16:37;;;;;;;6.40;2.30;;;;;;;;;;103785;1292;544962;-75
2023/09/24 11:20:17;;;;;;;5.30;2.20;;;;;;;;;;103859;1289;545024;-72
2023/09/24 11:23:52;;;;;;;6.70;3.20;;;;;;;;;;103670;1292;545496;-74
2023/09/24 11:27:30;;;;;;;5.90;2.60;;;;;;;;;;103771;1289;545687;-74
2023/09/24 11:31:07;;;;;;;6.70;2.40;;;;;;;;;;103706;1289;545328;-74
2023/09/24 11:34:44;;;;;;;7.30;3.00;;;;;;;;;;103877;1289;545372;-74
2023/09/24 11:38:28;;;;;;;7.90;3.50;;;;;;;;;;103873;1289;545011;-74
2023/09/24 11:42:00;;;;;;;8.10;3.30;;;;;;;;;;103690;1292;544827;-74
2023/09/24 11:45:40;;;;;;;5.50;2.50;;;;;;;;;;103680;1291;544984;-73
2023/09/24 11:49:14;;;;;;;6.90;2.40;;;;;;;;;;103716;1292;545127;-74
2023/09/24 11:52:52;;;;;;;6.90;2.40;;;;;;;;;;103641;1292;544768;-75
2023/09/24 11:56:31;;;;;;;6.00;2.50;;;;;;;;;;103930;1290;544930;-74
2023/09/24 12:00:08;;;;;;;5.80;2.40;;;;;;;;;;103757;1289;545640;-74
2023/09/24 12:04:04;;;;;;;5.40;2.50;;;;;;;;;;104018;1289;547766;-74
2023/09/24 12:07:22;;;;;;;5.60;2.30;;;;;;;;;;103763;1292;544880;-74
2023/09/24 12:10:59;;;;;;;5.50;2.20;;;;;;;;;;103827;1295;545081;-74
2023/09/24 12:14:37;;;;;;;5.80;2.50;;;;;;;;;;103945;1285;545930;-75
2023/09/24 12:18:14;;;;;;;6.80;2.70;;;;;;;;;;103789;1292;545959;-74
2023/09/24 12:21:51;;;;;;;6.40;2.20;;;;;;;;;;103973;1290;544992;-74
2023/09/24 12:25:29;;;;;;;5.50;2.00;;;;;;;;;;104242;1288;546074;-74
2023/09/24 12:29:07;;;;;;;5.70;2.20;;;;;;;;;;103819;1291;546309;-73
2023/09/24 12:32:44;;;;;;;6.30;2.50;;;;;;;;;;104061;1288;544797;-74
2023/09/24 12:36:21;;;;;;;6.70;2.80;;;;;;;;;;103823;1291;544977;-74
2023/09/24 12:39:59;;;;;;;5.90;2.80;;;;;;;;;;103733;1290;545256;-75
2023/09/24 12:43:32;;;;;;;6.50;3.00;;;;;;;;;;103797;1292;544805;-72
2023/09/24 12:47:15;;;;;;;5.70;2.70;;;;;;;;;;104107;1292;544991;-74
2023/09/24 12:50:53;;;;;;;5.60;2.50;;;;;;;;;;103719;1291;545365;-74
2023/09/24 12:54:30;;;;;;;5.60;2.30;;;;;;;;;;103539;1294;545196;-74
2023/09/24 12:58:08;;;;;;;5.80;2.40;;;;;;;;;;103684;1292;545021;-74
2023/09/24 13:01:46;;;;;;;5.60;2.50;;;;;;;;;;103726;1289;544769;-73
2023/09/24 13:05:23;;;;;;;7.40;2.20;;;;;;;;;;103649;1291;545032;-73
2023/09/24 13:09:00;;;;;;;4.60;2.30;;;;;;;;;;103452;1298;545432;-74
2023/09/24 13:12:37;;;;;;;5.10;2.00;;;;;;;;;;103954;1291;544945;-73
2023/09/24 13:16:15;;;;;;;5.50;2.30;;;;;;;;;;104191;1286;544845;-74
2023/09/24 13:19:52;;;;;;;5.00;1.90;;;;;;;;;;103725;1289;545449;-74
2023/09/24 13:23:30;;;;;;;4.60;2.00;;;;;;;;;;103721;1291;545345;-74
2023/09/24 13:27:07;;;;;;;4.20;2.00;;;;;;;;;;103729;1292;544815;-74
2023/09/24 13:30:45;;;;;;;5.50;2.00;;;;;;;;;;103673;1299;545032;-74
2023/09/24 13:34:22;;;;;;;5.80;2.50;;;;;;;;;;104162;1286;545377;-73
2023/09/24 13:37:59;;;;;;;5.10;2.10;;;;;;;;;;103807;1289;544749;-74
2023/09/24 13:41:37;;;;;;;6.80;2.40;;;;;;;;;;103711;1289;546036;-73
2023/09/24 13:45:16;;;;;;;6.00;2.30;;;;;;;;;;103649;1290;545100;-74
2023/09/24 13:48:49;;;;;;;5.60;1.90;;;;;;;;;;103770;1290;545527;-74
2023/09/24 13:52:32;;;;;;;5.80;1.80;;;;;;;;;;104178;1289;545045;-74
2023/09/24 13:56:10;;;;;;;4.40;2.10;;;;;;;;;;103989;1291;544743;-74
2023/09/24 13:59:49;;;;;;;5.00;2.30;;;;;;;;;;103713;1288;545438;-74
2023/09/24 14:03:24;;;;;;;5.20;2.00;;;;;;;;;;104543;1286;544784;-75
2023/09/24 14:07:02;;;;;;;5.20;2.20;;;;;;;;;;103709;1290;544955;-74
2023/09/24 14:14:18;;;;;;;5.70;1.90;;;;;;;;;;103917;1292;545067;-73
2023/09/24 14:17:54;;;;;;;4.90;1.90;;;;;;;;;;103761;1289;544741;-74
2023/09/24 14:21:31;;;;;;;4.70;1.80;;;;;;;;;;103840;1289;546353;-74
2023/09/24 14:25:09;;;;;;;5.40;1.90;;;;;;;;;;103458;1298;545713;-73
2023/09/24 14:28:46;;;;;;;4.70;2.10;;;;;;;;;;103999;1289;544985;-74
2023/09/24 14:32:24;;;;;;;4.80;1.70;;;;;;;;;;103745;1289;545505;-74
2023/09/24 14:36:02;;;;;;;4.70;2.10;;;;;;;;;;104046;1292;545899;-74
2023/09/24 14:39:38;;;;;;;5.30;1.80;;;;;;;;;;103741;1289;545054;-74
2023/09/24 14:43:16;;;;;;;4.80;2.00;;;;;;;;;;104095;1289;545963;-74
2023/09/24 14:46:54;;;;;;;5.40;2.50;;;;;;;;;;103613;1292;544985;-74
2023/09/24 14:50:31;;;;;;;4.90;2.30;;;;;;;;;;103736;1291;544968;-74
2023/09/24 14:54:09;;;;;;;4.60;1.90;;;;;;;;;;103701;1289;545446;-74
2023/09/24 14:57:48;;;;;;;5.40;2.10;;;;;;;;;;103708;1292;545131;-74
2023/09/24 15:01:25;;;;;;;5.40;2.20;;;;;;;;;;103722;1291;545749;-74
2023/09/24 15:05:02;;;;;;;4.70;2.00;;;;;;;;;;103684;1290;545037;-74
2023/09/24 15:08:39;;;;;;;5.50;2.10;;;;;;;;;;103802;1289;545594;-74
2023/09/24 15:12:16;;;;;;;4.90;1.90;;;;;;;;;;103686;1289;544745;-74
2023/09/24 15:15:54;;;;;;;5.50;2.10;;;;;;;;;;104058;1289;544949;-74
2023/09/24 15:19:31;;;;;;;4.50;2.10;;;;;;;;;;103756;1289;544738;-74
2023/09/24 15:23:11;;;;;;;5.00;2.00;;;;;;;;;;103634;1295;545392;-75
2023/09/24 15:26:46;;;;;;;4.60;1.80;;;;;;;;;;103714;1301;545945;-74
2023/09/24 15:30:23;;;;;;;6.30;2.20;;;;;;;;;;103795;1289;545452;-74
2023/09/24 15:34:00;;;;;;;4.70;1.90;;;;;;;;;;103834;1292;545007;-74
2023/09/24 15:37:38;;;;;;;5.90;1.80;;;;;;;;;;103761;1294;545428;-75
2023/09/24 15:41:12;;;;;;;5.10;1.80;;;;;;;;;;103779;1290;545001;-74
2023/09/24 15:44:54;;;;;;;6.00;2.50;;;;;;;;;;103710;1292;545870;-74
2023/09/24 15:48:32;;;;;;;4.90;1.70;;;;;;;;;;103797;1292;545352;-75
2023/09/24 15:52:09;;;;;;;3.60;1.60;;;;;;;;;;104105;1286;545170;-75
2023/09/24 15:55:47;;;;;;;5.00;1.90;;;;;;;;;;103726;1291;545325;-74
2023/09/24 15:59:24;;;;;;;6.90;2.40;;;;;;;;;;104173;1292;545502;-74
2023/09/24 16:03:02;;;;;;;6.00;2.10;;;;;;;;;;103737;1289;544751;-74
2023/09/24 16:06:39;;;;;;;6.50;2.30;;;;;;;;;;103951;1290;545060;-75
2023/09/24 16:10:16;;;;;;;6.30;2.20;;;;;;;;;;103758;1289;545361;-74
2023/09/24 16:14:13;;;;;;;5.70;2.40;;;;;;;;;;103573;1298;547982;-74
2023/09/24 16:17:51;;;;;;;5.50;2.80;;;;;;;;;;103396;1298;548261;-74
2023/09/24 16:21:09;;;;;;;6.40;2.80;;;;;;;;;;104022;1292;545921;-74
2023/09/24 16:24:49;;;;;;;8.40;3.00;;;;;;;;;;103992;1297;544994;-74
2023/09/24 16:28:24;;;;;;;6.40;2.80;;;;;;;;;;103838;1288;544835;-74
2023/09/24 16:32:01;;;;;;;6.30;2.60;;;;;;;;;;104222;1286;545025;-74
2023/09/24 16:35:40;;;;;;;6.60;2.30;;;;;;;;;;103670;1295;545657;-74
2023/09/24 16:39:16;;;;;;;5.80;2.80;;;;;;;;;;103708;1291;545243;-74
2023/09/24 16:42:54;;;;;;;5.70;2.00;;;;;;;;;;103774;1289;544949;-74
2023/09/24 16:46:31;;;;;;;5.30;2.10;;;;;;;;;;103766;1290;544802;-74
2023/09/24 16:50:08;;;;;;;4.70;2.10;;;;;;;;;;103678;1289;544781;-74
2023/09/24 16:53:47;;;;;;;6.00;1.90;;;;;;;;;;103707;1289;545075;-74
2023/09/24 16:57:24;;;;;;;4.50;2.30;;;;;;;;;;103489;1295;544789;-74
2023/09/24 17:01:01;;;;;;;4.70;2.00;;;;;;;;;;103793;1289;544967;-74
2023/09/24 17:04:39;;;;;;;5.40;2.10;;;;;;;;;;103785;1290;545454;-75
2023/09/24 17:08:16;;;;;;;6.00;2.60;;;;;;;;;;103814;1289;544789;-75
2023/09/24 17:12:01;;;;;;;6.60;3.00;;;;;;;;;;103475;1295;548303;-74
2023/09/24 17:15:31;;;;;;;8.10;3.30;;;;;;;;;;103880;1289;545348;-74
2023/09/24 17:19:09;;;;;;;6.80;3.20;;;;;;;;;;103843;1289;545935;-74
2023/09/24 17:23:06;;;;;;;7.60;3.40;;;;;;;;;;103669;1292;547975;-74
2023/09/24 17:26:24;;;;;;;7.10;3.20;;;;;;;;;;103719;1292;545674;-74
2023/09/24 17:30:04;;;;;;;8.00;4.20;;;;;;;;;;103652;1290;545176;-74
2023/09/24 17:33:39;;;;;;;8.30;4.10;;;;;;;;;;103690;1292;544988;-74
2023/09/24 17:37:16;;;;;;;7.40;4.30;;;;;;;;;;103739;1289;544994;-74
2023/09/24 17:40:55;;;;;;;6.50;3.50;;;;;;;;;;103713;1291;545767;-74
2023/09/24 17:44:31;;;;;;;9.50;3.50;;;;;;;;;;103959;1289;544984;-74
2023/09/24 17:48:08;;;;;;;6.90;3.30;;;;;;;;;;103760;1292;544935;-74
2023/09/24 17:51:46;;;;;;;6.70;3.50;;;;;;;;;;103810;1295;544987;-74
2023/09/24 17:55:23;;;;;;;8.80;3.30;;;;;;;;;;103810;1289;544792;-73
2023/09/24 17:59:00;;;;;;;8.80;3.60;;;;;;;;;;103741;1293;545535;-74
2023/09/24 18:02:39;;;;;;;7.40;3.10;;;;;;;;;;103812;1288;545381;-73
2023/09/24 18:06:16;;;;;;;7.10;3.60;;;;;;;;;;104532;1282;544795;-74
2023/09/24 18:09:54;;;;;;;8.80;4.50;;;;;;;;;;104009;1291;544953;-74
2023/09/24 18:13:30;;;;;;;7.50;3.80;;;;;;;;;;103732;1291;545927;-75
2023/09/24 18:17:08;;;;;;;6.70;3.20;;;;;;;;;;103721;1289;544976;-74
2023/09/24 18:20:46;;;;;;;6.10;2.90;;;;;;;;;;103963;1291;544848;-74
2023/09/24 18:24:23;;;;;;;6.60;3.10;;;;;;;;;;103736;1292;545111;-74
2023/09/24 18:28:00;;;;;;;7.90;3.40;;;;;;;;;;103784;1289;544718;-74
2023/09/24 18:32:00;;;;;;;8.80;3.60;;;;;;;;;;103559;1297;547983;-74
2023/09/24 18:35:15;;;;;;;7.30;3.50;;;;;;;;;;103818;1289;544720;-73
2023/09/24 18:38:49;;;;;;;9.80;4.20;;;;;;;;;;104024;1288;545036;-74
2023/09/24 18:42:34;;;;;;;7.90;4.10;;;;;;;;;;103907;1288;544987;-74
2023/09/24 18:46:30;;;;;;;7.10;3.90;;;;;;;;;;103594;1291;547868;-74
2023/09/24 18:49:48;;;;;;;6.40;3.90;;;;;;;;;;103781;1291;544750;-75
2023/09/24 18:53:26;;;;;;;6.20;3.30;;;;;;;;;;103493;1295;545000;-74
2023/09/24 18:57:03;;;;;;;8.20;3.90;;;;;;;;;;103645;1292;544945;-74
2023/09/24 19:00:40;;;;;;;7.40;4.30;;;;;;;;;;103774;1291;544798;-74
2023/09/24 19:04:17;;;;;;;7.50;4.40;;;;;;;;;;103730;1289;545304;-74
2023/09/24 19:07:55;;;;;;;7.20;4.40;;;;;;;;;;104004;1289;544977;-74
2023/09/24 19:11:32;;;;;;;8.20;4.50;;;;;;;;;;103711;1289;545795;-74
2023/09/24 19:15:10;;;;;;;7.60;4.20;;;;;;;;;;103924;1289;544990;-74
2023/09/24 19:18:48;;;;;;;8.40;4.50;;;;;;;;;;104037;1286;544800;-74
2023/09/24 19:22:26;;;;;;;8.90;4.20;;;;;;;;;;103816;1292;544965;-74
2023/09/24 19:26:11;;;;;;;8.20;4.50;;;;;;;;;;103703;1292;545419;-74
2023/09/24 19:29:40;;;;;;;7.20;4.00;;;;;;;;;;103756;1292;545641;-74
2023/09/24 19:33:38;;;;;;;7.80;3.50;;;;;;;;;;103604;1303;548083;-74
2023/09/24 19:36:55;;;;;;;8.80;4.00;;;;;;;;;;103962;1289;545288;-75
2023/09/24 19:40:32;;;;;;;7.00;3.70;;;;;;;;;;104066;1290;545046;-75
2023/09/24 19:44:26;;;;;;;7.40;3.90;;;;;;;;;;103765;1292;548026;-73
2023/09/24 19:47:47;;;;;;;8.70;4.30;;;;;;;;;;103806;1289;545098;-73
2023/09/24 19:51:26;;;;;;;6.90;3.60;;;;;;;;;;103718;1289;545331;-74
2023/09/24 19:55:23;;;;;;;7.40;4.10;;;;;;;;;;103973;1295;547773;-74
2023/09/24 19:58:39;;;;;;;7.70;4.20;;;;;;;;;;103714;1289;544967;-74
2023/09/24 20:02:18;;;;;;;7.00;3.70;;;;;;;;;;103757;1288;544996;-74
2023/09/24 20:05:55;;;;;;;6.90;3.40;;;;;;;;;;103811;1290;545328;-74
2023/09/24 20:09:30;;;;;;;8.60;4.10;;;;;;;;;;103762;1289;546024;-74
2023/09/24 20:13:12;;;;;;;7.00;3.60;;;;;;;;;;104063;1288;545559;-74
2023/09/24 20:16:50;;;;;;;8.00;4.30;;;;;;;;;;104025;1294;544655;-74
2023/09/24 20:20:27;;;;;;;7.80;3.90;;;;;;;;;;103842;1289;544714;-74
2023/09/24 20:24:10;;;;;;;7.20;3.90;;;;;;;;;;103924;1292;545810;-74
2023/09/24 20:27:43;;;;;;;7.30;3.70;;;;;;;;;;103868;1301;544962;-74
2023/09/24 20:31:20;;;;;;;7.20;3.70;;;;;;;;;;103770;1291;545745;-74
2023/09/24 20:34:58;;;;;;;7.60;3.90;;;;;;;;;;103742;1290;544990;-74
2023/09/24 20:38:32;;;;;;;7.50;3.70;;;;;;;;;;104447;1286;544771;-74
2023/09/24 20:42:15;;;;;;;7.60;3.60;;;;;;;;;;103696;1289;544779;-74
2023/09/24 20:45:56;;;;;;;7.00;3.40;;;;;;;;;;103943;1289;544966;-75
2023/09/24 20:49:29;;;;;;;8.70;3.60;;;;;;;;;;103901;1294;545021;-74
2023/09/24 20:53:07;;;;;;;6.90;3.60;;;;;;;;;;103693;1292;544799;-74
2023/09/24 20:56:44;;;;;;;8.10;4.00;;;;;;;;;;104008;1288;544598;-74
2023/09/24 21:00:28;;;;;;;8.40;4.40;;;;;;;;;;103953;1295;544750;-74
2023/09/24 21:04:01;;;;;;;8.50;3.70;;;;;;;;;;103982;1289;545600;-73
2023/09/24 21:07:37;;;;;;;7.30;3.80;;;;;;;;;;104220;1286;544810;-75
2023/09/24 21:11:14;;;;;;;14.30;4.70;;;;;;;;;;103801;1302;545416;-74
2023/09/24 21:14:54;;;;;;;12.70;5.00;;;;;;;;;;103907;1290;544894;-73
2023/09/24 21:18:29;;;;;;;12.50;4.10;;;;;;;;;;103942;1286;545012;-74
2023/09/24 21:22:07;;;;;;;14.10;4.50;;;;;;;;;;104207;1292;544824;-74
2023/09/24 21:25:44;;;;;;;15.80;4.10;;;;;;;;;;104027;1291;544972;-73